Time;durP1;ratioP1;P1;durP2;ratioP2;P2;SDS_P1;SDS_P2;PMS_P1;PMS_P2;Temp;Humidity;BMP_temperature;BMP_pressure;BME280_temperature;BME280_humidity;BME280_pressure;Samples;Min_cycle;Max_cycle;Signal;HPM_P1;HPM_P2
2022/04/15 00:00:48;;;;;;;18.05;10.02;;;;;;;7.72;98.19;102026.22;5029442;28;20164;-42
2022/04/15 00:03:13;;;;;;;15.38;9.73;;;;;;;7.71;98.13;102033.31;5029432;28;20192;-41
2022/04/15 00:05:45;;;;;;;15.05;10.38;;;;;;;7.80;97.90;102019.91;5011832;28;20168;-43
2022/04/15 00:08:12;;;;;;;16.80;9.80;;;;;;;7.73;98.10;102023.53;5030032;28;20670;-43
2022/04/15 00:10:40;;;;;;;16.35;10.02;;;;;;;7.78;98.28;102027.09;5029188;28;20192;-41
2022/04/15 00:13:11;;;;;;;17.35;10.50;;;;;;;7.84;98.24;102024.34;5029147;28;20659;-42
2022/04/15 00:15:39;;;;;;;16.95;9.90;;;;;;;7.87;98.02;102028.78;5027684;28;20173;-43
2022/04/15 00:18:05;;;;;;;15.77;10.02;;;;;;;7.91;98.26;102034.97;5030309;28;20246;-42
2022/04/15 00:20:31;;;;;;;13.57;10.23;;;;;;;7.84;98.11;102024.34;5015307;28;20526;-42
2022/04/15 00:22:58;;;;;;;22.10;12.07;;;;;;;7.80;97.90;102035.03;5014589;28;20184;-44
2022/04/15 00:25:24;;;;;;;14.77;11.15;;;;;;;7.79;98.22;102036.84;5032830;28;20196;-42
2022/04/15 00:27:50;;;;;;;14.95;10.32;;;;;;;7.84;98.18;102032.34;5031102;28;20659;-42
2022/04/15 00:30:16;;;;;;;15.50;10.77;;;;;;;7.79;98.09;102042.19;5031010;28;20192;-43
2022/04/15 00:32:41;;;;;;;15.20;10.27;;;;;;;7.89;98.27;102040.31;5032604;28;20237;-41
2022/04/15 00:35:07;;;;;;;15.93;11.75;;;;;;;7.73;98.68;102033.31;5031500;28;20266;-42
2022/04/15 00:37:33;;;;;;;15.27;10.95;;;;;;;7.82;98.52;102038.59;5032955;28;20222;-42
2022/04/15 00:40:02;;;;;;;13.10;9.98;;;;;;;7.83;98.83;102038.59;5031312;28;20172;-42
2022/04/15 00:42:28;;;;;;;16.55;11.82;;;;;;;7.78;98.70;102052.84;5032108;28;20191;-42
2022/04/15 00:44:54;;;;;;;15.18;10.63;;;;;;;7.92;98.47;102058.09;5032648;28;20310;-43
2022/04/15 00:47:48;;;;;;;12.25;10.10;;;;;;;7.96;98.26;102057.16;5032432;28;20203;-43
2022/04/15 00:50:15;;;;;;;16.17;11.73;;;;;;;7.88;98.23;102057.22;5030656;28;20195;-43
2022/04/15 00:52:44;;;;;;;12.43;10.75;;;;;;;7.85;98.40;102057.28;5032203;28;20229;-44
2022/04/15 00:55:10;;;;;;;20.42;12.00;;;;;;;7.79;98.51;102065.31;5031891;28;20164;-42
2022/04/15 00:57:39;;;;;;;18.27;12.77;;;;;;;7.81;98.46;102063.50;5032886;28;20188;-44
2022/04/15 01:00:07;;;;;;;16.50;12.85;;;;;;;7.81;98.86;102063.50;5032287;28;20187;-42
2022/04/15 01:02:34;;;;;;;18.83;13.07;;;;;;;7.82;98.54;102068.81;5031957;28;20206;-44
2022/04/15 01:05:02;;;;;;;19.92;14.02;;;;;;;7.81;98.49;102063.50;5032348;28;20187;-43
2022/04/15 01:07:32;;;;;;;15.73;13.15;;;;;;;7.79;98.57;102066.19;5032035;28;20219;-43
2022/04/15 01:09:58;;;;;;;16.58;13.65;;;;;;;7.70;99.09;102074.25;5031776;28;20196;-42
2022/04/15 01:12:28;;;;;;;19.48;13.82;;;;;;;7.75;99.13;102071.56;5032007;28;20561;-43
2022/04/15 01:15:00;;;;;;;17.65;14.02;;;;;;;7.73;99.17;102076.00;5031546;28;20172;-43
2022/04/15 01:17:27;;;;;;;15.88;14.02;;;;;;;7.82;99.20;102071.50;5032162;28;20200;-44
2022/04/15 01:19:53;;;;;;;20.65;13.82;;;;;;;7.80;99.20;102083.94;5031609;28;20734;-44
2022/04/15 01:22:23;;;;;;;18.58;14.07;;;;;;;7.83;98.80;102070.59;5031361;28;20263;-44
2022/04/15 01:24:48;;;;;;;18.90;13.82;;;;;;;7.80;99.09;102075.06;5031456;28;20168;-43
2022/04/15 01:27:41;;;;;;;22.05;14.75;;;;;;;7.79;99.26;102075.97;5031458;28;20206;-42
2022/04/15 01:30:13;;;;;;;17.02;13.77;;;;;;;7.78;98.96;102074.19;5030369;28;20222;-44
2022/04/15 01:32:38;;;;;;;18.15;13.48;;;;;;;7.93;99.22;102083.88;5020457;28;20176;-43
2022/04/15 01:35:06;;;;;;;18.55;13.95;;;;;;;7.87;99.00;102081.25;5025045;28;20562;-45
2022/04/15 01:37:31;;;;;;;20.90;14.75;;;;;;;7.86;98.70;102084.81;5030994;28;20188;-44
2022/04/15 01:39:57;;;;;;;20.88;14.77;;;;;;;7.82;98.57;102084.81;5031123;28;20530;-43
2022/04/15 01:42:23;;;;;;;18.58;14.85;;;;;;;7.90;98.52;102086.59;5031027;28;20181;-42
2022/04/15 01:44:49;;;;;;;20.55;13.82;;;;;;;7.77;99.04;102083.09;5031506;28;20176;-44
2022/04/15 01:47:16;;;;;;;22.35;14.88;;;;;;;7.63;99.14;102083.16;5031570;28;20207;-44
2022/04/15 01:49:42;;;;;;;23.42;14.65;;;;;;;7.70;99.26;102097.38;5030370;28;20286;-45
2022/04/15 01:52:08;;;;;;;19.08;14.50;;;;;;;7.62;99.76;102092.06;5030102;28;20175;-43
2022/04/15 01:54:33;;;;;;;18.95;13.45;;;;;;;7.75;99.50;102090.22;5030747;28;20180;-43
2022/04/15 01:56:59;;;;;;;19.27;14.25;;;;;;;7.81;99.56;102092.88;5031061;28;20199;-44
2022/04/15 01:59:24;;;;;;;20.45;14.55;;;;;;;7.57;99.92;102091.22;5030748;28;20175;-43
2022/04/15 02:01:54;;;;;;;21.13;14.65;;;;;;;7.64;99.91;102092.97;5031080;28;20649;-44
2022/04/15 02:04:24;;;;;;;22.48;14.77;;;;;;;7.66;100.00;102100.97;5030995;28;20535;-43
2022/04/15 02:06:50;;;;;;;20.95;15.15;;;;;;;7.54;100.00;102108.13;5030989;28;20186;-44
2022/04/15 02:09:16;;;;;;;22.50;16.20;;;;;;;7.50;100.00;102102.81;5031124;28;20168;-42
2022/04/15 02:11:42;;;;;;;22.88;15.13;;;;;;;7.50;100.00;102098.38;5030603;28;20557;-44
2022/04/15 02:14:07;;;;;;;20.67;15.23;;;;;;;7.46;100.00;102098.41;5029387;28;20179;-44
2022/04/15 02:16:34;;;;;;;22.35;15.57;;;;;;;7.39;100.00;102102.84;5031244;28;20661;-44
2022/04/15 02:18:59;;;;;;;21.35;14.82;;;;;;;7.45;100.00;102109.94;5030674;28;20175;-44
2022/04/15 02:21:25;;;;;;;18.75;15.13;;;;;;;7.40;100.00;102107.31;5030500;28;20615;-43
2022/04/15 02:23:50;;;;;;;17.02;14.50;;;;;;;7.39;100.00;102116.19;5030757;28;20279;-44
2022/04/15 02:26:15;;;;;;;22.27;15.40;;;;;;;7.46;100.00;102109.06;5030437;28;20179;-42
2022/04/15 02:28:41;;;;;;;18.95;14.73;;;;;;;7.43;100.00;102120.59;5030632;28;20282;-44
2022/04/15 02:31:06;;;;;;;20.00;13.65;;;;;;;7.53;100.00;102118.81;5030630;28;20310;-42
2022/04/15 02:33:31;;;;;;;17.38;15.02;;;;;;;7.52;100.00;102128.59;5030406;28;20462;-45
2022/04/15 02:35:57;;;;;;;18.50;14.25;;;;;;;7.40;100.00;102134.84;5029744;28;20190;-43
2022/04/15 02:38:22;;;;;;;21.23;14.25;;;;;;;7.42;100.00;102122.41;5029429;28;20228;-43
2022/04/15 02:40:48;;;;;;;19.05;14.90;;;;;;;7.45;100.00;102129.50;5030111;28;20168;-44
2022/04/15 02:43:13;;;;;;;20.67;14.07;;;;;;;7.49;100.00;102136.59;5030053;28;20182;-42
2022/04/15 02:45:39;;;;;;;21.90;14.95;;;;;;;7.46;100.00;102127.75;5030267;28;20172;-43
2022/04/15 02:48:04;;;;;;;22.35;15.93;;;;;;;7.49;100.00;102135.72;5029905;28;20258;-47
2022/04/15 02:50:30;;;;;;;18.23;14.60;;;;;;;7.53;100.00;102134.81;5029583;28;20270;-45
2022/04/15 02:52:58;;;;;;;17.20;13.95;;;;;;;7.60;100.00;102131.22;5029763;28;20172;-45
2022/04/15 02:55:24;;;;;;;18.60;15.20;;;;;;;7.45;100.00;102139.28;5029910;28;20671;-45
2022/04/15 02:57:49;;;;;;;18.77;14.98;;;;;;;7.52;100.00;102131.25;5029608;28;20195;-48
2022/04/15 03:00:15;;;;;;;20.95;14.85;;;;;;;7.40;100.00;102129.50;5028683;28;20190;-46
2022/04/15 03:02:40;;;;;;;19.83;15.73;;;;;;;7.41;100.00;102136.63;5029108;28;20172;-46
2022/04/15 03:05:09;;;;;;;22.80;15.75;;;;;;;7.45;100.00;102142.81;5030027;28;20215;-48
2022/04/15 03:07:37;;;;;;;20.35;15.52;;;;;;;7.48;100.00;102139.25;5029767;28;20208;-47
2022/04/15 03:10:07;;;;;;;20.70;16.25;;;;;;;7.50;100.00;102149.06;5029728;28;20344;-47
2022/04/15 03:12:34;;;;;;;20.70;16.13;;;;;;;7.51;100.00;102137.47;5029779;28;20556;-46
2022/04/15 03:14:59;;;;;;;20.15;16.00;;;;;;;7.41;100.00;102146.38;5029426;28;20606;-48
2022/04/15 03:17:25;;;;;;;23.30;16.80;;;;;;;7.42;100.00;102148.19;5029398;28;20275;-47
2022/04/15 03:19:50;;;;;;;21.30;16.08;;;;;;;7.49;100.00;102162.38;5029572;28;20157;-46
2022/04/15 03:22:17;;;;;;;20.52;15.68;;;;;;;7.56;100.00;102156.13;5029270;28;20186;-46
2022/04/15 03:24:42;;;;;;;22.52;16.85;;;;;;;7.52;100.00;102154.34;5028568;28;20705;-48
2022/04/15 03:27:07;;;;;;;22.52;17.30;;;;;;;7.45;100.00;102163.28;5029474;28;20192;-46
2022/04/15 03:29:33;;;;;;;22.75;17.45;;;;;;;7.51;100.00;102157.94;5029432;28;20174;-48
2022/04/15 03:31:58;;;;;;;23.25;17.35;;;;;;;7.51;100.00;102158.81;5027723;28;20654;-46
2022/04/15 03:34:23;;;;;;;22.80;17.05;;;;;;;7.58;100.00;102155.22;5018950;28;20511;-47
2022/04/15 03:36:49;;;;;;;25.15;18.63;;;;;;;7.62;100.00;102164.09;5025754;28;20180;-48
2022/04/15 03:39:14;;;;;;;25.95;18.08;;;;;;;7.58;nan;102155.22;5028463;28;20588;-46
2022/04/15 03:41:40;;;;;;;24.08;17.75;;;;;;;7.45;nan;102169.50;5024260;28;20211;-46
2022/04/15 03:44:05;;;;;;;31.77;20.90;;;;;;;7.15;100.00;102170.47;5029096;28;20184;-46
2022/04/15 03:46:30;;;;;;;34.65;22.60;;;;;;;6.97;100.00;102166.94;5029356;28;20237;-47
2022/04/15 03:48:56;;;;;;;31.33;21.60;;;;;;;7.17;100.00;102174.94;5028097;28;20207;-48
2022/04/15 03:51:21;;;;;;;33.00;21.70;;;;;;;7.02;100.00;102174.97;5029129;28;20554;-47
2022/04/15 03:53:47;;;;;;;31.95;22.23;;;;;;;7.14;100.00;102164.25;5031750;28;20190;-48
2022/04/15 03:56:12;;;;;;;32.35;21.67;;;;;;;7.20;100.00;102168.69;5033505;28;20515;-46
2022/04/15 03:58:37;;;;;;;26.85;19.50;;;;;;;7.28;100.00;102161.56;5032979;28;20208;-45
2022/04/15 04:01:03;;;;;;;29.90;20.10;;;;;;;7.29;100.00;102165.13;5032887;28;20202;-46
2022/04/15 04:03:29;;;;;;;27.35;20.17;;;;;;;7.23;100.00;102174.00;5033260;28;20516;-47
2022/04/15 04:05:54;;;;;;;30.02;19.25;;;;;;;7.31;100.00;102174.88;5032667;28;20168;-47
2022/04/15 04:08:19;;;;;;;30.88;19.90;;;;;;;7.21;100.00;102181.13;5032553;28;20188;-48
2022/04/15 04:10:45;;;;;;;25.80;18.17;;;;;;;7.29;100.00;102178.44;5033267;28;20253;-45
2022/04/15 04:13:10;;;;;;;28.85;19.65;;;;;;;7.27;100.00;102189.09;5033092;28;20633;-45
2022/04/15 04:15:36;;;;;;;25.63;19.05;;;;;;;7.19;100.00;102190.91;5032377;28;20223;-47
2022/04/15 04:18:02;;;;;;;25.77;19.33;;;;;;;7.14;100.00;102196.25;5033078;28;20227;-48
2022/04/15 04:20:28;;;;;;;25.60;18.75;;;;;;;7.12;100.00;102190.03;5032705;28;20168;-47
2022/04/15 04:22:54;;;;;;;24.92;19.02;;;;;;;7.15;100.00;102210.44;5031966;28;20677;-47
2022/04/15 04:25:20;;;;;;;22.20;17.77;;;;;;;7.33;100.00;102217.53;5032317;28;20180;-46
2022/04/15 04:27:45;;;;;;;29.60;19.20;;;;;;;7.02;100.00;102201.63;5030866;28;20214;-45
2022/04/15 04:30:12;;;;;;;25.80;17.70;;;;;;;7.16;100.00;102207.78;5031975;28;20188;-46
2022/04/15 04:32:38;;;;;;;23.88;18.58;;;;;;;7.26;100.00;102210.44;5031932;28;20613;-45
2022/04/15 04:35:05;;;;;;;27.13;19.55;;;;;;;7.30;100.00;102218.41;5032011;28;20204;-45
2022/04/15 04:37:31;;;;;;;26.90;18.95;;;;;;;7.36;100.00;102215.72;5031655;28;20203;-47
2022/04/15 04:39:57;;;;;;;24.15;17.45;;;;;;;7.46;100.00;102221.06;5030990;28;20165;-46
2022/04/15 04:42:22;;;;;;;30.55;20.73;;;;;;;7.28;100.00;102221.97;5030560;28;20168;-47
2022/04/15 04:44:48;;;;;;;31.15;21.63;;;;;;;7.27;100.00;102218.44;5031478;28;20665;-46
2022/04/15 04:47:14;;;;;;;31.33;20.70;;;;;;;7.28;100.00;102230.88;5032087;28;20192;-46
2022/04/15 04:49:39;;;;;;;29.58;21.33;;;;;;;7.36;100.00;102229.06;5031231;28;20262;-47
2022/04/15 04:52:06;;;;;;;29.38;21.13;;;;;;;7.28;100.00;102236.22;5031098;28;20602;-46
2022/04/15 04:54:31;;;;;;;26.55;19.30;;;;;;;7.29;100.00;102231.75;5031743;28;20226;-46
2022/04/15 04:56:58;;;;;;;30.60;20.55;;;;;;;7.14;100.00;102238.88;5031647;28;20200;-46
2022/04/15 04:59:25;;;;;;;31.33;20.90;;;;;;;7.27;100.00;102236.22;5031331;28;20176;-47
2022/04/15 05:01:53;;;;;;;29.55;20.13;;;;;;;7.25;100.00;102241.53;5031514;28;20255;-46
2022/04/15 05:04:18;;;;;;;30.77;20.23;;;;;;;7.27;100.00;102246.88;5031098;28;20481;-46
2022/04/15 05:06:44;;;;;;;29.10;19.95;;;;;;;7.26;100.00;102251.31;5029818;28;20227;-46
2022/04/15 05:09:09;;;;;;;25.98;19.70;;;;;;;7.27;100.00;102250.41;5031475;28;20168;-46
2022/04/15 05:11:35;;;;;;;26.60;18.63;;;;;;;7.31;100.00;102257.53;5031626;28;20199;-48
2022/04/15 05:14:00;;;;;;;25.92;18.98;;;;;;;7.32;100.00;102259.28;5030230;28;20602;-47
2022/04/15 05:16:26;;;;;;;27.48;19.58;;;;;;;7.20;100.00;102275.31;5031294;28;20623;-46
2022/04/15 05:18:51;;;;;;;29.50;19.40;;;;;;;7.31;100.00;102276.19;5031089;28;20198;-47
2022/04/15 05:21:16;;;;;;;24.27;18.92;;;;;;;7.32;100.00;102269.94;5030556;28;20198;-45
2022/04/15 05:23:42;;;;;;;26.80;18.60;;;;;;;7.27;100.00;102270.88;5031051;28;20631;-44
2022/04/15 05:26:08;;;;;;;26.45;19.83;;;;;;;7.06;100.00;102279.75;5031492;28;20237;-45
2022/04/15 05:28:35;;;;;;;30.23;21.50;;;;;;;6.96;100.00;102278.88;5030488;28;20195;-45
2022/04/15 05:31:02;;;;;;;28.13;21.02;;;;;;;7.05;100.00;102283.31;5031218;28;20196;-45
2022/04/15 05:33:28;;;;;;;30.42;21.60;;;;;;;6.92;100.00;102280.66;5030474;28;20627;-47
2022/04/15 05:35:53;;;;;;;31.75;21.77;;;;;;;7.04;100.00;102286.84;5030763;28;20176;-46
2022/04/15 05:38:18;;;;;;;34.67;22.55;;;;;;;6.86;100.00;102301.06;5031116;28;20239;-46
2022/04/15 05:40:44;;;;;;;31.95;22.02;;;;;;;6.85;100.00;102296.66;5030418;28;20484;-47
2022/04/15 05:43:09;;;;;;;32.42;22.65;;;;;;;6.98;100.00;102296.66;5030847;28;20207;-46
2022/04/15 05:45:35;;;;;;;31.77;22.77;;;;;;;7.08;100.00;102307.28;5030596;28;20623;-46
2022/04/15 05:48:00;;;;;;;33.08;22.13;;;;;;;6.95;100.00;102295.75;5030819;28;20196;-44
2022/04/15 05:50:25;;;;;;;31.58;22.48;;;;;;;7.08;100.00;102304.63;5030350;28;20236;-45
2022/04/15 05:52:51;;;;;;;32.28;22.58;;;;;;;7.12;100.00;102309.06;5030500;28;20650;-45
2022/04/15 05:55:16;;;;;;;31.25;20.95;;;;;;;7.19;100.00;102322.41;5031045;28;20272;-47
2022/04/15 05:57:42;;;;;;;33.15;21.83;;;;;;;7.26;100.00;102327.72;5031087;28;20226;-45
2022/04/15 06:00:08;;;;;;;31.45;21.50;;;;;;;7.17;100.00;102326.88;5030670;28;20523;-45
2022/04/15 06:02:40;;;;;;;31.55;21.67;;;;;;;7.22;100.00;102338.41;5030190;28;20208;-47
2022/04/15 06:05:08;;;;;;;31.83;21.55;;;;;;;7.28;100.00;102331.28;5030315;28;20211;-46
2022/04/15 06:07:33;;;;;;;32.78;21.50;;;;;;;7.13;100.00;102342.84;5030967;28;20207;-48
2022/04/15 06:09:58;;;;;;;29.70;21.67;;;;;;;7.30;100.00;102334.84;5030953;28;20208;-46
2022/04/15 06:15:23;;;;;;;34.85;21.30;;;;;;;7.22;100.00;102343.72;5026868;28;20187;-46
2022/04/15 06:17:49;;;;;;;30.05;20.10;;;;;;;7.33;100.00;102357.06;5028717;28;20639;-49
2022/04/15 06:20:15;;;;;;;33.40;21.35;;;;;;;7.25;100.00;102358.84;5030455;28;20643;-46
2022/04/15 06:22:44;;;;;;;34.47;22.25;;;;;;;7.15;100.00;102370.38;5029394;28;20212;-47
2022/04/15 06:25:10;;;;;;;36.17;21.55;;;;;;;6.98;100.00;102373.91;5030129;28;20627;-48
2022/04/15 06:27:36;;;;;;;34.38;22.05;;;;;;;7.03;100.00;102367.72;5028726;28;20188;-49
2022/04/15 06:30:01;;;;;;;35.22;21.05;;;;;;;7.19;100.00;102372.16;5027470;28;20570;-47
2022/04/15 06:32:26;;;;;;;32.38;20.45;;;;;;;7.13;100.00;102374.84;5027580;28;20756;-45
2022/04/15 06:34:52;;;;;;;34.75;21.02;;;;;;;7.13;100.00;102380.16;5028648;28;20403;-46
2022/04/15 06:37:17;;;;;;;33.20;20.48;;;;;;;7.10;100.00;102389.03;5028522;28;20230;-48
2022/04/15 06:39:43;;;;;;;34.20;20.52;;;;;;;6.87;100.00;102394.34;5027702;28;20199;-47
2022/04/15 06:42:08;;;;;;;39.60;23.70;;;;;;;6.75;100.00;102397.84;5028086;28;20553;-48
2022/04/15 06:44:35;;;;;;;38.38;22.15;;;;;;;6.75;100.00;102404.94;5027154;28;20211;-49
2022/04/15 06:47:01;;;;;;;38.92;22.52;;;;;;;6.76;100.00;102401.41;5027600;28;20972;-46
2022/04/15 06:49:26;;;;;;;41.70;23.30;;;;;;;6.74;100.00;102401.41;5027213;28;20176;-45
2022/04/15 06:51:52;;;;;;;39.55;23.30;;;;;;;6.78;100.00;102410.28;5028220;28;20697;-48
2022/04/15 06:54:17;;;;;;;41.40;23.67;;;;;;;6.80;100.00;102404.09;5027243;28;20619;-46
2022/04/15 06:56:42;;;;;;;43.70;23.40;;;;;;;6.78;100.00;102408.50;5028021;28;20270;-46
2022/04/15 06:59:08;;;;;;;41.75;23.58;;;;;;;6.86;100.00;102413.84;5027071;28;20203;-46
2022/04/15 07:01:35;;;;;;;45.85;23.25;;;;;;;6.89;100.00;102407.66;5028049;28;20180;-48
2022/04/15 07:04:02;;;;;;;40.42;23.15;;;;;;;6.72;100.00;102407.59;5028599;28;20634;-47
2022/04/15 07:06:27;;;;;;;38.67;22.60;;;;;;;6.85;100.00;102420.06;5029170;28;20600;-46
2022/04/15 07:08:53;;;;;;;49.17;25.13;;;;;;;6.81;100.00;102427.16;5029122;28;20204;-48
2022/04/15 07:11:18;;;;;;;39.80;22.45;;;;;;;6.73;100.00;102422.69;5029800;28;20211;-47
2022/04/15 07:13:44;;;;;;;45.22;23.52;;;;;;;6.72;100.00;102436.91;5029268;28;20180;-48
2022/04/15 07:16:09;;;;;;;43.75;23.45;;;;;;;6.73;100.00;102431.56;5029145;28;20168;-48
2022/04/15 07:18:34;;;;;;;43.55;24.58;;;;;;;6.65;100.00;102429.75;5029584;28;20662;-47
2022/04/15 07:21:00;;;;;;;49.08;27.00;;;;;;;6.65;100.00;102435.09;5029203;28;20156;-47
2022/04/15 07:23:25;;;;;;;50.78;27.90;;;;;;;6.50;100.00;102449.25;5029423;28;20660;-45
2022/04/15 07:25:51;;;;;;;57.15;26.80;;;;;;;6.47;100.00;102438.56;5029484;28;20623;-45
2022/04/15 07:28:16;;;;;;;54.67;28.02;;;;;;;6.50;100.00;102442.13;5031056;28;20198;-47
2022/04/15 07:30:41;;;;;;;55.35;29.35;;;;;;;6.45;100.00;102443.00;5032497;28;20654;-45
2022/04/15 07:33:07;;;;;;;53.55;28.38;;;;;;;6.44;100.00;102446.56;5032734;28;20175;-46
2022/04/15 07:35:32;;;;;;;61.28;29.23;;;;;;;6.46;100.00;102451.00;5031909;28;20261;-48
2022/04/15 07:37:58;;;;;;;61.63;31.02;;;;;;;6.51;100.00;102459.88;5033372;28;20190;-45
2022/04/15 07:40:27;;;;;;;54.72;27.83;;;;;;;6.43;100.00;102461.63;5033481;28;20211;-47
2022/04/15 07:42:54;;;;;;;58.58;28.75;;;;;;;6.41;100.00;102468.72;5033057;28;20740;-46
2022/04/15 07:45:20;;;;;;;49.60;27.15;;;;;;;6.47;100.00;102463.44;5032959;28;20179;-46
2022/04/15 07:47:47;;;;;;;45.97;24.73;;;;;;;6.47;100.00;102463.44;5033379;28;20194;-49
2022/04/15 07:50:13;;;;;;;45.85;24.02;;;;;;;6.57;100.00;102462.59;5033206;28;20195;-48
2022/04/15 07:52:38;;;;;;;36.33;20.60;;;;;;;6.54;100.00;102465.25;5032885;28;20164;-47
2022/04/15 07:55:04;;;;;;;34.05;19.70;;;;;;;6.63;100.00;102461.72;5033007;28;20168;-46
2022/04/15 07:57:30;;;;;;;34.50;19.80;;;;;;;6.62;100.00;102467.91;5031034;28;20553;-49
2022/04/15 07:59:56;;;;;;;36.55;21.00;;;;;;;6.75;100.00;102471.53;5032991;28;20188;-47
2022/04/15 08:02:21;;;;;;;37.05;21.13;;;;;;;6.69;100.00;102466.19;5033207;28;20330;-47
2022/04/15 08:04:47;;;;;;;34.25;20.33;;;;;;;6.79;100.00;102474.22;5032723;28;20634;-47
2022/04/15 08:07:12;;;;;;;34.38;19.52;;;;;;;6.73;100.00;102478.63;5032778;28;20667;-48
2022/04/15 08:09:39;;;;;;;34.47;18.63;;;;;;;6.70;100.00;102489.28;5032473;28;20234;-47
2022/04/15 08:12:08;;;;;;;26.20;17.80;;;;;;;6.68;100.00;102493.72;5032290;28;20167;-47
2022/04/15 08:14:34;;;;;;;28.48;17.52;;;;;;;6.67;100.00;102490.16;5032865;28;20678;-49
2022/04/15 08:16:59;;;;;;;22.58;16.08;;;;;;;6.59;100.00;102489.22;5014541;28;20291;-46
2022/04/15 08:19:25;;;;;;;23.20;14.65;;;;;;;6.61;100.00;102500.78;5032695;28;20172;-47
2022/04/15 08:21:51;;;;;;;22.20;14.85;;;;;;;6.67;100.00;102491.91;5032007;28;20259;-46
2022/04/15 08:24:16;;;;;;;23.50;14.25;;;;;;;6.65;100.00;102507.00;5032468;28;20251;-48
2022/04/15 08:26:44;;;;;;;20.33;14.48;;;;;;;6.63;100.00;102498.13;5031383;28;20160;-47
2022/04/15 08:29:10;;;;;;;21.80;13.88;;;;;;;6.68;100.00;102504.38;5030604;28;20184;-48
2022/04/15 08:31:35;;;;;;;24.85;15.65;;;;;;;6.67;100.00;102510.56;5032151;28;20195;-49
2022/04/15 08:34:02;;;;;;;23.48;14.23;;;;;;;6.74;100.00;102520.38;5032007;28;20171;-46
2022/04/15 08:36:27;;;;;;;20.42;14.95;;;;;;;6.68;100.00;102515.91;5032487;28;20424;-47
2022/04/15 08:38:53;;;;;;;21.50;14.52;;;;;;;6.72;100.00;102522.16;5031647;28;20603;-47
2022/04/15 08:41:21;;;;;;;24.00;14.52;;;;;;;6.76;100.00;102522.16;5032646;28;20186;-46
2022/04/15 08:43:46;;;;;;;21.42;13.63;;;;;;;6.71;100.00;102523.94;5032114;28;20160;-46
2022/04/15 08:46:12;;;;;;;18.27;13.23;;;;;;;6.84;100.00;102516.84;5030316;28;20267;-48
2022/04/15 08:48:39;;;;;;;23.75;13.15;;;;;;;6.73;100.00;102526.56;5036775;28;20257;-46
2022/04/15 08:51:05;;;;;;;20.92;13.20;;;;;;;6.67;100.00;102538.09;5051565;28;20179;-45
2022/04/15 08:53:31;;;;;;;18.77;13.25;;;;;;;6.71;100.00;102541.66;5051527;28;20623;-46
2022/04/15 08:55:57;;;;;;;21.30;12.75;;;;;;;6.77;100.00;102539.91;5051262;28;20661;-46
2022/04/15 08:58:25;;;;;;;20.50;13.60;;;;;;;6.72;100.00;102546.13;5051961;28;20285;-49
2022/04/15 09:00:50;;;;;;;21.38;13.18;;;;;;;6.71;100.00;102560.31;5051848;28;20191;-46
2022/04/15 09:03:15;;;;;;;22.98;13.65;;;;;;;6.73;100.00;102553.22;5051342;28;20626;-49
2022/04/15 09:05:41;;;;;;;21.33;13.00;;;;;;;6.67;100.00;102566.50;5027628;28;20184;-46
2022/04/15 09:08:08;;;;;;;22.15;13.60;;;;;;;6.71;100.00;102568.28;5027365;28;20670;-47
2022/04/15 09:10:35;;;;;;;22.60;14.13;;;;;;;6.73;100.00;102567.41;5026025;28;20311;-49
2022/04/15 09:13:03;;;;;;;21.73;13.10;;;;;;;6.67;100.00;102579.81;5028321;28;20180;-49
2022/04/15 09:15:28;;;;;;;26.25;13.88;;;;;;;6.72;100.00;102572.75;5032050;28;20302;-45
2022/04/15 09:17:54;;;;;;;21.85;13.82;;;;;;;6.72;100.00;102591.41;5031308;28;20252;-45
2022/04/15 09:20:21;;;;;;;21.55;14.45;;;;;;;6.66;100.00;102586.91;5032439;28;20164;-47
2022/04/15 09:22:50;;;;;;;22.05;13.77;;;;;;;6.70;100.00;102585.16;5031146;28;20224;-51
2022/04/15 09:25:16;;;;;;;21.80;13.55;;;;;;;6.68;100.00;102595.81;5031452;28;20627;-46
2022/04/15 09:27:41;;;;;;;21.85;14.18;;;;;;;6.73;100.00;102579.84;5031559;28;20184;-48
2022/04/15 09:30:07;;;;;;;23.98;14.10;;;;;;;6.72;100.00;102586.97;5031185;28;20206;-46
2022/04/15 09:32:32;;;;;;;23.02;14.55;;;;;;;6.73;100.00;102596.72;5031329;28;20169;-46
2022/04/15 09:35:00;;;;;;;23.58;15.48;;;;;;;6.69;100.00;102602.03;5031286;28;20354;-46
2022/04/15 09:37:27;;;;;;;22.58;14.00;;;;;;;6.70;100.00;102603.81;5031146;28;20213;-49
2022/04/15 09:40:18;;;;;;;25.42;15.55;;;;;;;6.70;100.00;102615.34;5031473;28;20168;-45
2022/04/15 09:42:46;;;;;;;26.45;15.95;;;;;;;6.79;100.00;102610.06;5031005;28;20171;-51
2022/04/15 09:45:19;;;;;;;27.42;16.08;;;;;;;6.76;100.00;102617.19;5031344;28;20627;-49
2022/04/15 09:48:01;;;;;;;27.77;15.27;;;;;;;6.76;100.00;102609.19;5013063;28;20710;-54
2022/04/15 09:50:28;;;;;;;27.38;16.27;;;;;;;6.76;100.00;102625.16;5013733;28;20206;-46
2022/04/15 09:53:18;;;;;;;27.38;16.10;;;;;;;6.79;100.00;102619.84;5031142;28;20180;-48
2022/04/15 09:55:46;;;;;;;30.38;16.40;;;;;;;6.74;100.00;102621.59;5023330;28;20600;-46
2022/04/15 09:58:13;;;;;;;27.48;16.10;;;;;;;6.79;100.00;102623.41;5030742;28;20188;-47
2022/04/15 10:00:40;;;;;;;29.63;15.75;;;;;;;6.80;100.00;102621.66;5031018;28;20612;-48
2022/04/15 10:03:11;;;;;;;31.77;17.45;;;;;;;6.82;100.00;102627.84;5030837;28;20648;-46
2022/04/15 10:05:38;;;;;;;31.98;16.88;;;;;;;6.79;100.00;102633.16;5030857;28;20647;-48
2022/04/15 10:08:04;;;;;;;29.38;17.42;;;;;;;6.80;100.00;102642.97;5030459;28;20249;-48
2022/04/15 10:10:31;;;;;;;27.77;16.60;;;;;;;6.78;100.00;102636.72;5030829;28;20188;-46
2022/04/15 10:13:01;;;;;;;31.85;17.42;;;;;;;6.80;100.00;102642.97;5030286;28;20172;-50
2022/04/15 10:15:29;;;;;;;29.80;16.50;;;;;;;6.78;100.00;102645.59;5030852;28;20298;-49
2022/04/15 10:17:55;;;;;;;33.30;16.23;;;;;;;6.77;100.00;102658.91;5030525;28;20406;-48
2022/04/15 10:20:21;;;;;;;29.42;16.13;;;;;;;6.78;100.00;102650.06;5030629;28;20279;-46
2022/04/15 10:22:47;;;;;;;30.48;16.92;;;;;;;6.76;100.00;102649.16;5030419;28;20198;-47
2022/04/15 10:25:12;;;;;;;34.03;17.98;;;;;;;6.71;100.00;102653.53;5030069;28;20174;-48
2022/04/15 10:27:38;;;;;;;32.42;18.27;;;;;;;6.71;100.00;102648.19;5030648;28;20200;-45
2022/04/15 10:30:14;;;;;;;35.63;17.65;;;;;;;6.64;100.00;102660.59;5030336;28;20195;-49
2022/04/15 10:32:55;;;;;;;35.10;18.17;;;;;;;6.64;100.00;102662.38;5030211;28;20649;-48
2022/04/15 10:35:28;;;;;;;33.20;17.55;;;;;;;6.61;100.00;102652.59;5030445;28;20255;-44
2022/04/15 10:38:00;;;;;;;36.63;18.55;;;;;;;6.64;100.00;102659.69;5029845;28;20199;-47
2022/04/15 10:40:31;;;;;;;36.85;18.02;;;;;;;6.70;100.00;102657.09;5030440;28;20186;-49
2022/04/15 10:43:22;;;;;;;32.25;16.85;;;;;;;6.71;100.00;102658.84;5029956;28;20180;-44
2022/04/15 10:45:48;;;;;;;40.20;18.50;;;;;;;6.73;100.00;102662.44;5030289;28;20360;-46
2022/04/15 10:48:28;;;;;;;33.95;17.40;;;;;;;6.77;100.00;102666.91;4995872;28;20204;-46
2022/04/15 10:50:54;;;;;;;34.38;17.40;;;;;;;6.77;100.00;102680.22;5029743;28;20229;-50
2022/04/15 10:53:26;;;;;;;35.33;16.10;;;;;;;6.74;100.00;102682.88;5029702;28;20277;-45
2022/04/15 10:55:54;;;;;;;37.65;16.67;;;;;;;6.67;100.00;102679.28;5029675;28;20226;-46
2022/04/15 10:58:21;;;;;;;30.45;15.18;;;;;;;6.70;100.00;102678.41;5029971;28;20196;-45
2022/04/15 11:01:31;;;;;;;30.65;15.25;;;;;;;6.68;100.00;102682.81;5029555;28;20172;-46
2022/04/15 11:04:03;;;;;;;29.45;15.43;;;;;;;6.68;100.00;102686.38;5029445;28;20196;-48
2022/04/15 11:06:28;;;;;;;26.80;14.55;;;;;;;6.66;100.00;102687.25;5029969;28;20187;-48
2022/04/15 11:08:54;;;;;;;26.30;14.48;;;;;;;6.69;100.00;102685.50;5029502;28;20222;-45
2022/04/15 11:11:34;;;;;;;20.25;13.20;;;;;;;6.73;100.00;102681.97;5029451;28;20239;-45
2022/04/15 11:14:04;;;;;;;26.50;14.35;;;;;;;6.73;100.00;102684.63;5029342;28;20301;-48